sensor_id;sensor_type;location;lat;lon;timestamp;P1;durP1;ratioP1;P2;durP2;ratioP2
10088;SDS011;51898;49.864;8.550;2022-11-04T00:00:06;13.07;;;8.20;;
10088;SDS011;51898;49.864;8.550;2022-11-04T00:03:09;14.17;;;7.83;;
10088;SDS011;51898;49.864;8.550;2022-11-04T00:06:11;10.30;;;6.50;;
10088;SDS011;51898;49.864;8.550;2022-11-04T00:09:17;9.67;;;6.40;;
10088;SDS011;51898;49.864;8.550;2022-11-04T00:12:23;8.00;;;5.87;;
10088;SDS011;51898;49.864;8.550;2022-11-04T00:15:25;8.00;;;5.90;;
10088;SDS011;51898;49.864;8.550;2022-11-04T00:18:45;11.57;;;6.10;;
10088;SDS011;51898;49.864;8.550;2022-11-04T00:21:47;6.20;;;5.40;;
10088;SDS011;51898;49.864;8.550;2022-11-04T00:25:08;5.30;;;4.77;;
10088;SDS011;51898;49.864;8.550;2022-11-04T00:28:28;4.90;;;4.40;;
10088;SDS011;51898;49.864;8.550;2022-11-04T00:31:45;8.50;;;4.57;;
10088;SDS011;51898;49.864;8.550;2022-11-04T00:35:06;5.97;;;3.67;;
10088;SDS011;51898;49.864;8.550;2022-11-04T00:38:08;5.30;;;3.77;;
10088;SDS011;51898;49.864;8.550;2022-11-04T00:41:11;3.80;;;2.87;;
10088;SDS011;51898;49.864;8.550;2022-11-04T00:44:28;3.20;;;2.87;;
10088;SDS011;51898;49.864;8.550;2022-11-04T00:47:30;2.47;;;2.27;;
10088;SDS011;51898;49.864;8.550;2022-11-04T00:50:32;2.23;;;1.90;;
10088;SDS011;51898;49.864;8.550;2022-11-04T00:53:34;2.10;;;1.90;;
10088;SDS011;51898;49.864;8.550;2022-11-04T00:56:36;2.80;;;1.50;;
10088;SDS011;51898;49.864;8.550;2022-11-04T00:59:38;1.70;;;1.60;;
10088;SDS011;51898;49.864;8.550;2022-11-04T01:02:40;1.93;;;1.50;;
10088;SDS011;51898;49.864;8.550;2022-11-04T01:05:42;1.60;;;1.50;;
10088;SDS011;51898;49.864;8.550;2022-11-04T01:08:44;1.60;;;1.50;;
10088;SDS011;51898;49.864;8.550;2022-11-04T01:11:46;1.73;;;1.37;;
10088;SDS011;51898;49.864;8.550;2022-11-04T01:14:48;1.60;;;1.50;;
10088;SDS011;51898;49.864;8.550;2022-11-04T01:17:50;1.50;;;1.30;;
10088;SDS011;51898;49.864;8.550;2022-11-04T01:20:51;1.40;;;1.30;;
10088;SDS011;51898;49.864;8.550;2022-11-04T01:23:53;1.30;;;1.20;;
10088;SDS011;51898;49.864;8.550;2022-11-04T01:26:55;1.83;;;1.20;;
10088;SDS011;51898;49.864;8.550;2022-11-04T01:29:56;1.37;;;1.27;;
10088;SDS011;51898;49.864;8.550;2022-11-04T01:32:58;1.17;;;1.07;;
10088;SDS011;51898;49.864;8.550;2022-11-04T01:36:00;1.97;;;1.20;;
10088;SDS011;51898;49.864;8.550;2022-11-04T01:39:02;2.03;;;1.10;;
10088;SDS011;51898;49.864;8.550;2022-11-04T01:42:03;1.73;;;1.07;;
10088;SDS011;51898;49.864;8.550;2022-11-04T01:45:08;1.73;;;1.17;;
10088;SDS011;51898;49.864;8.550;2022-11-04T01:48:18;1.73;;;1.20;;
10088;SDS011;51898;49.864;8.550;2022-11-04T01:51:27;1.80;;;1.40;;
10088;SDS011;51898;49.864;8.550;2022-11-04T01:54:32;1.37;;;1.07;;
10088;SDS011;51898;49.864;8.550;2022-11-04T01:57:37;1.20;;;1.10;;
10088;SDS011;51898;49.864;8.550;2022-11-04T02:00:41;1.10;;;1.00;;
10088;SDS011;51898;49.864;8.550;2022-11-04T02:03:48;3.67;;;1.20;;
10088;SDS011;51898;49.864;8.550;2022-11-04T02:07:19;1.00;;;0.90;;
10088;SDS011;51898;49.864;8.550;2022-11-04T02:10:22;1.10;;;1.00;;
10088;SDS011;51898;49.864;8.550;2022-11-04T02:13:27;1.67;;;1.13;;
10088;SDS011;51898;49.864;8.550;2022-11-04T02:16:39;2.17;;;0.90;;
10088;SDS011;51898;49.864;8.550;2022-11-04T02:19:57;1.00;;;0.90;;
10088;SDS011;51898;49.864;8.550;2022-11-04T02:23:13;1.57;;;1.13;;
10088;SDS011;51898;49.864;8.550;2022-11-04T02:30:21;1.40;;;1.30;;
10088;SDS011;51898;49.864;8.550;2022-11-04T02:36:58;1.57;;;1.20;;
10088;SDS011;51898;49.864;8.550;2022-11-04T02:43:35;2.23;;;1.60;;
10088;SDS011;51898;49.864;8.550;2022-11-04T02:50:09;1.40;;;1.30;;
10088;SDS011;51898;49.864;8.550;2022-11-04T02:53:22;2.00;;;1.50;;
10088;SDS011;51898;49.864;8.550;2022-11-04T02:56:31;1.90;;;1.20;;
10088;SDS011;51898;49.864;8.550;2022-11-04T02:59:38;2.57;;;1.60;;
10088;SDS011;51898;49.864;8.550;2022-11-04T03:03:08;2.43;;;1.23;;
10088;SDS011;51898;49.864;8.550;2022-11-04T03:06:15;5.13;;;1.30;;
10088;SDS011;51898;49.864;8.550;2022-11-04T03:09:20;2.73;;;1.60;;
10088;SDS011;51898;49.864;8.550;2022-11-04T03:12:25;1.83;;;1.20;;
10088;SDS011;51898;49.864;8.550;2022-11-04T03:15:33;4.40;;;1.70;;
10088;SDS011;51898;49.864;8.550;2022-11-04T03:22:12;1.90;;;1.30;;
10088;SDS011;51898;49.864;8.550;2022-11-04T03:25:17;1.43;;;1.33;;
10088;SDS011;51898;49.864;8.550;2022-11-04T03:35:14;1.43;;;1.33;;
10088;SDS011;51898;49.864;8.550;2022-11-04T03:38:17;2.40;;;1.50;;
10088;SDS011;51898;49.864;8.550;2022-11-04T03:41:26;1.90;;;1.70;;
10088;SDS011;51898;49.864;8.550;2022-11-04T03:44:34;5.27;;;1.30;;
10088;SDS011;51898;49.864;8.550;2022-11-04T03:47:37;4.17;;;1.70;;
10088;SDS011;51898;49.864;8.550;2022-11-04T03:50:40;3.03;;;1.60;;
10088;SDS011;51898;49.864;8.550;2022-11-04T03:53:44;6.00;;;1.83;;
10088;SDS011;51898;49.864;8.550;2022-11-04T03:59:55;2.40;;;2.00;;
10088;SDS011;51898;49.864;8.550;2022-11-04T04:03:10;3.27;;;2.53;;
10088;SDS011;51898;49.864;8.550;2022-11-04T04:06:19;6.13;;;2.27;;
10088;SDS011;51898;49.864;8.550;2022-11-04T04:09:28;2.27;;;2.10;;
10088;SDS011;51898;49.864;8.550;2022-11-04T04:12:37;5.53;;;2.43;;
10088;SDS011;51898;49.864;8.550;2022-11-04T04:16:25;3.73;;;2.27;;
10088;SDS011;51898;49.864;8.550;2022-11-04T04:22:21;7.20;;;2.60;;
10088;SDS011;51898;49.864;8.550;2022-11-04T04:25:27;8.40;;;3.10;;
10088;SDS011;51898;49.864;8.550;2022-11-04T04:28:50;8.17;;;3.07;;
10088;SDS011;51898;49.864;8.550;2022-11-04T04:31:54;2.53;;;1.90;;
10088;SDS011;51898;49.864;8.550;2022-11-04T04:34:58;5.90;;;2.40;;
10088;SDS011;51898;49.864;8.550;2022-11-04T04:38:22;3.53;;;1.70;;
10088;SDS011;51898;49.864;8.550;2022-11-04T04:41:50;5.37;;;2.30;;
10088;SDS011;51898;49.864;8.550;2022-11-04T04:45:18;6.93;;;2.40;;
10088;SDS011;51898;49.864;8.550;2022-11-04T04:48:27;4.60;;;2.47;;
10088;SDS011;51898;49.864;8.550;2022-11-04T04:51:29;8.10;;;3.00;;
10088;SDS011;51898;49.864;8.550;2022-11-04T04:54:31;4.60;;;2.43;;
10088;SDS011;51898;49.864;8.550;2022-11-04T04:57:33;9.60;;;2.70;;
10088;SDS011;51898;49.864;8.550;2022-11-04T05:00:35;7.27;;;2.80;;
10088;SDS011;51898;49.864;8.550;2022-11-04T05:03:36;18.27;;;3.57;;
10088;SDS011;51898;49.864;8.550;2022-11-04T05:06:45;6.40;;;3.03;;
10088;SDS011;51898;49.864;8.550;2022-11-04T05:09:46;7.80;;;2.43;;
10088;SDS011;51898;49.864;8.550;2022-11-04T05:12:48;5.03;;;2.40;;
10088;SDS011;51898;49.864;8.550;2022-11-04T05:16:09;6.47;;;2.87;;
10088;SDS011;51898;49.864;8.550;2022-11-04T05:19:11;6.17;;;2.90;;
10088;SDS011;51898;49.864;8.550;2022-11-04T05:22:13;4.27;;;2.67;;
10088;SDS011;51898;49.864;8.550;2022-11-04T05:25:14;6.10;;;2.80;;
10088;SDS011;51898;49.864;8.550;2022-11-04T05:28:16;7.53;;;3.13;;
10088;SDS011;51898;49.864;8.550;2022-11-04T05:31:18;9.40;;;2.50;;
10088;SDS011;51898;49.864;8.550;2022-11-04T05:34:20;7.73;;;2.90;;
10088;SDS011;51898;49.864;8.550;2022-11-04T05:37:21;5.97;;;2.27;;
10088;SDS011;51898;49.864;8.550;2022-11-04T05:40:23;5.97;;;2.37;;
10088;SDS011;51898;49.864;8.550;2022-11-04T05:43:25;4.17;;;1.73;;
10088;SDS011;51898;49.864;8.550;2022-11-04T05:46:27;6.47;;;2.20;;
10088;SDS011;51898;49.864;8.550;2022-11-04T05:49:29;4.93;;;2.40;;
10088;SDS011;51898;49.864;8.550;2022-11-04T05:52:31;4.70;;;2.13;;
10088;SDS011;51898;49.864;8.550;2022-11-04T05:55:35;5.30;;;2.40;;
10088;SDS011;51898;49.864;8.550;2022-11-04T05:58:37;5.20;;;2.20;;
10088;SDS011;51898;49.864;8.550;2022-11-04T06:01:39;6.93;;;2.70;;
10088;SDS011;51898;49.864;8.550;2022-11-04T06:04:42;9.60;;;2.60;;
10088;SDS011;51898;49.864;8.550;2022-11-04T06:07:44;6.83;;;2.50;;
10088;SDS011;51898;49.864;8.550;2022-11-04T06:10:46;6.90;;;2.53;;
10088;SDS011;51898;49.864;8.550;2022-11-04T06:13:48;8.30;;;3.00;;
10088;SDS011;51898;49.864;8.550;2022-11-04T06:16:49;9.30;;;2.20;;
10088;SDS011;51898;49.864;8.550;2022-11-04T06:19:51;8.67;;;3.30;;
10088;SDS011;51898;49.864;8.550;2022-11-04T06:22:52;5.17;;;3.40;;
10088;SDS011;51898;49.864;8.550;2022-11-04T06:25:54;10.20;;;4.77;;
10088;SDS011;51898;49.864;8.550;2022-11-04T06:28:56;7.40;;;2.40;;
10088;SDS011;51898;49.864;8.550;2022-11-04T06:31:58;8.10;;;2.27;;
10088;SDS011;51898;49.864;8.550;2022-11-04T06:34:59;4.53;;;2.17;;
10088;SDS011;51898;49.864;8.550;2022-11-04T06:38:01;3.13;;;2.13;;
10088;SDS011;51898;49.864;8.550;2022-11-04T06:41:03;4.80;;;2.47;;
10088;SDS011;51898;49.864;8.550;2022-11-04T06:44:06;11.63;;;2.47;;
10088;SDS011;51898;49.864;8.550;2022-11-04T06:47:08;5.93;;;2.90;;
10088;SDS011;51898;49.864;8.550;2022-11-04T06:50:10;6.93;;;2.23;;
10088;SDS011;51898;49.864;8.550;2022-11-04T06:53:12;5.30;;;2.17;;
10088;SDS011;51898;49.864;8.550;2022-11-04T06:56:14;6.07;;;2.40;;
10088;SDS011;51898;49.864;8.550;2022-11-04T06:59:17;6.60;;;2.63;;
10088;SDS011;51898;49.864;8.550;2022-11-04T07:02:20;4.70;;;2.83;;
10088;SDS011;51898;49.864;8.550;2022-11-04T07:05:22;5.67;;;2.77;;
10088;SDS011;51898;49.864;8.550;2022-11-04T07:08:23;4.20;;;2.60;;
10088;SDS011;51898;49.864;8.550;2022-11-04T07:11:26;5.57;;;2.57;;
10088;SDS011;51898;49.864;8.550;2022-11-04T07:14:29;9.13;;;2.73;;
10088;SDS011;51898;49.864;8.550;2022-11-04T07:17:31;4.90;;;2.50;;
10088;SDS011;51898;49.864;8.550;2022-11-04T07:20:33;6.53;;;2.47;;
10088;SDS011;51898;49.864;8.550;2022-11-04T07:23:36;6.40;;;2.77;;
10088;SDS011;51898;49.864;8.550;2022-11-04T07:26:38;4.77;;;2.43;;
10088;SDS011;51898;49.864;8.550;2022-11-04T07:29:43;5.27;;;2.23;;
10088;SDS011;51898;49.864;8.550;2022-11-04T07:32:45;7.60;;;2.70;;
10088;SDS011;51898;49.864;8.550;2022-11-04T07:35:47;3.17;;;2.07;;
10088;SDS011;51898;49.864;8.550;2022-11-04T07:38:48;4.07;;;2.20;;
10088;SDS011;51898;49.864;8.550;2022-11-04T07:41:50;6.93;;;2.17;;
10088;SDS011;51898;49.864;8.550;2022-11-04T07:44:59;6.43;;;2.20;;
10088;SDS011;51898;49.864;8.550;2022-11-04T07:48:00;6.30;;;1.90;;
10088;SDS011;51898;49.864;8.550;2022-11-04T07:51:03;11.10;;;2.10;;
10088;SDS011;51898;49.864;8.550;2022-11-04T07:54:09;4.53;;;1.90;;
10088;SDS011;51898;49.864;8.550;2022-11-04T07:57:11;3.93;;;1.63;;
10088;SDS011;51898;49.864;8.550;2022-11-04T08:00:13;5.17;;;2.00;;
10088;SDS011;51898;49.864;8.550;2022-11-04T08:03:17;4.70;;;2.13;;
10088;SDS011;51898;49.864;8.550;2022-11-04T08:06:19;4.83;;;2.40;;
10088;SDS011;51898;49.864;8.550;2022-11-04T08:09:21;9.87;;;3.40;;
10088;SDS011;51898;49.864;8.550;2022-11-04T08:12:23;4.07;;;2.30;;
10088;SDS011;51898;49.864;8.550;2022-11-04T08:15:25;5.20;;;2.40;;
10088;SDS011;51898;49.864;8.550;2022-11-04T08:18:26;8.10;;;2.20;;
10088;SDS011;51898;49.864;8.550;2022-11-04T08:21:29;4.90;;;2.70;;
10088;SDS011;51898;49.864;8.550;2022-11-04T08:24:32;3.83;;;2.00;;
10088;SDS011;51898;49.864;8.550;2022-11-04T08:27:33;3.60;;;1.90;;
10088;SDS011;51898;49.864;8.550;2022-11-04T08:30:35;4.37;;;2.17;;
10088;SDS011;51898;49.864;8.550;2022-11-04T08:33:37;6.10;;;5.00;;
10088;SDS011;51898;49.864;8.550;2022-11-04T08:36:38;10.13;;;5.40;;
10088;SDS011;51898;49.864;8.550;2022-11-04T08:39:45;6.37;;;3.60;;
10088;SDS011;51898;49.864;8.550;2022-11-04T08:42:47;10.10;;;4.77;;
10088;SDS011;51898;49.864;8.550;2022-11-04T08:45:48;6.40;;;3.90;;
10088;SDS011;51898;49.864;8.550;2022-11-04T08:48:50;9.90;;;3.03;;
10088;SDS011;51898;49.864;8.550;2022-11-04T08:51:52;4.23;;;2.77;;
10088;SDS011;51898;49.864;8.550;2022-11-04T08:54:59;6.83;;;2.10;;
10088;SDS011;51898;49.864;8.550;2022-11-04T08:58:01;3.20;;;1.93;;
10088;SDS011;51898;49.864;8.550;2022-11-04T09:01:03;7.03;;;1.93;;
10088;SDS011;51898;49.864;8.550;2022-11-04T09:04:06;2.37;;;1.50;;
10088;SDS011;51898;49.864;8.550;2022-11-04T09:07:08;3.60;;;1.90;;
10088;SDS011;51898;49.864;8.550;2022-11-04T09:10:10;6.87;;;2.07;;
10088;SDS011;51898;49.864;8.550;2022-11-04T09:13:13;4.97;;;2.10;;
10088;SDS011;51898;49.864;8.550;2022-11-04T09:16:16;3.40;;;2.10;;
10088;SDS011;51898;49.864;8.550;2022-11-04T09:19:17;4.43;;;2.10;;
10088;SDS011;51898;49.864;8.550;2022-11-04T09:22:19;4.87;;;1.70;;
10088;SDS011;51898;49.864;8.550;2022-11-04T09:25:20;6.70;;;2.17;;
10088;SDS011;51898;49.864;8.550;2022-11-04T09:28:22;4.10;;;2.00;;
10088;SDS011;51898;49.864;8.550;2022-11-04T09:31:26;6.50;;;2.50;;
10088;SDS011;51898;49.864;8.550;2022-11-04T09:34:29;2.63;;;1.87;;
10088;SDS011;51898;49.864;8.550;2022-11-04T09:37:31;2.80;;;2.27;;
10088;SDS011;51898;49.864;8.550;2022-11-04T09:40:34;6.27;;;1.97;;
10088;SDS011;51898;49.864;8.550;2022-11-04T09:46:56;4.40;;;2.00;;
10088;SDS011;51898;49.864;8.550;2022-11-04T09:50:02;4.43;;;2.10;;
10088;SDS011;51898;49.864;8.550;2022-11-04T09:53:16;3.33;;;1.87;;
10088;SDS011;51898;49.864;8.550;2022-11-04T09:56:22;7.10;;;2.17;;
10088;SDS011;51898;49.864;8.550;2022-11-04T09:59:33;4.70;;;1.90;;
10088;SDS011;51898;49.864;8.550;2022-11-04T10:02:44;4.80;;;1.80;;
10088;SDS011;51898;49.864;8.550;2022-11-04T10:06:12;5.47;;;2.33;;
10088;SDS011;51898;49.864;8.550;2022-11-04T10:09:41;4.87;;;2.10;;
10088;SDS011;51898;49.864;8.550;2022-11-04T10:22:35;2.37;;;1.67;;
10088;SDS011;51898;49.864;8.550;2022-11-04T10:28:57;2.70;;;2.03;;
10088;SDS011;51898;49.864;8.550;2022-11-04T10:32:11;4.03;;;1.70;;
10088;SDS011;51898;49.864;8.550;2022-11-04T10:38:34;2.80;;;1.60;;
10088;SDS011;51898;49.864;8.550;2022-11-04T10:41:39;2.10;;;1.67;;
10088;SDS011;51898;49.864;8.550;2022-11-04T10:44:41;4.60;;;1.83;;
10088;SDS011;51898;49.864;8.550;2022-11-04T10:47:47;6.87;;;1.73;;
10088;SDS011;51898;49.864;8.550;2022-11-04T10:50:54;4.97;;;1.80;;
10088;SDS011;51898;49.864;8.550;2022-11-04T10:53:58;7.40;;;1.63;;
10088;SDS011;51898;49.864;8.550;2022-11-04T10:57:01;10.13;;;1.80;;
10088;SDS011;51898;49.864;8.550;2022-11-04T11:00:03;6.90;;;1.53;;
10088;SDS011;51898;49.864;8.550;2022-11-04T11:03:21;4.20;;;1.53;;
10088;SDS011;51898;49.864;8.550;2022-11-04T11:06:34;6.33;;;1.70;;
10088;SDS011;51898;49.864;8.550;2022-11-04T11:12:41;4.60;;;2.00;;
10088;SDS011;51898;49.864;8.550;2022-11-04T11:16:11;5.93;;;1.50;;
10088;SDS011;51898;49.864;8.550;2022-11-04T11:19:27;2.70;;;1.60;;
10088;SDS011;51898;49.864;8.550;2022-11-04T11:22:35;4.60;;;1.50;;
10088;SDS011;51898;49.864;8.550;2022-11-04T11:25:40;5.67;;;1.70;;
10088;SDS011;51898;49.864;8.550;2022-11-04T11:28:52;5.53;;;2.23;;
10088;SDS011;51898;49.864;8.550;2022-11-04T11:32:00;2.93;;;1.47;;
10088;SDS011;51898;49.864;8.550;2022-11-04T11:35:01;4.53;;;1.80;;
10088;SDS011;51898;49.864;8.550;2022-11-04T11:38:20;6.23;;;1.57;;
10088;SDS011;51898;49.864;8.550;2022-11-04T11:41:31;5.90;;;1.87;;
10088;SDS011;51898;49.864;8.550;2022-11-04T11:44:53;5.87;;;1.87;;
10088;SDS011;51898;49.864;8.550;2022-11-04T11:47:57;4.50;;;1.80;;
10088;SDS011;51898;49.864;8.550;2022-11-04T11:50:59;4.10;;;1.67;;
10088;SDS011;51898;49.864;8.550;2022-11-04T11:54:02;2.70;;;1.40;;
10088;SDS011;51898;49.864;8.550;2022-11-04T12:04:33;7.83;;;2.40;;
10088;SDS011;51898;49.864;8.550;2022-11-04T12:15:07;5.03;;;1.60;;
10088;SDS011;51898;49.864;8.550;2022-11-04T12:21:57;5.50;;;1.97;;
10088;SDS011;51898;49.864;8.550;2022-11-04T12:25:13;5.40;;;2.10;;
10088;SDS011;51898;49.864;8.550;2022-11-04T12:32:00;3.97;;;1.90;;
10088;SDS011;51898;49.864;8.550;2022-11-04T12:35:22;6.13;;;1.73;;
10088;SDS011;51898;49.864;8.550;2022-11-04T12:42:21;1.77;;;1.60;;
10088;SDS011;51898;49.864;8.550;2022-11-04T12:45:42;4.17;;;1.80;;
10088;SDS011;51898;49.864;8.550;2022-11-04T12:49:21;5.13;;;1.57;;
10088;SDS011;51898;49.864;8.550;2022-11-04T13:05:49;4.57;;;2.40;;
10088;SDS011;51898;49.864;8.550;2022-11-04T13:09:14;6.83;;;2.43;;
10088;SDS011;51898;49.864;8.550;2022-11-04T13:12:31;3.33;;;1.80;;
10088;SDS011;51898;49.864;8.550;2022-11-04T13:15:39;6.57;;;1.80;;
10088;SDS011;51898;49.864;8.550;2022-11-04T13:18:52;4.30;;;1.83;;
10088;SDS011;51898;49.864;8.550;2022-11-04T13:21:54;3.10;;;1.70;;
10088;SDS011;51898;49.864;8.550;2022-11-04T13:25:04;4.70;;;1.67;;
10088;SDS011;51898;49.864;8.550;2022-11-04T13:28:10;3.50;;;1.70;;
10088;SDS011;51898;49.864;8.550;2022-11-04T13:31:25;3.77;;;2.10;;
10088;SDS011;51898;49.864;8.550;2022-11-04T13:34:33;4.20;;;1.93;;
10088;SDS011;51898;49.864;8.550;2022-11-04T13:37:57;6.43;;;2.57;;
10088;SDS011;51898;49.864;8.550;2022-11-04T13:44:40;5.43;;;2.47;;
10088;SDS011;51898;49.864;8.550;2022-11-04T13:51:01;5.50;;;2.80;;
10088;SDS011;51898;49.864;8.550;2022-11-04T13:54:22;6.83;;;2.77;;
10088;SDS011;51898;49.864;8.550;2022-11-04T13:57:29;9.10;;;2.90;;
10088;SDS011;51898;49.864;8.550;2022-11-04T14:00:33;3.17;;;2.70;;
10088;SDS011;51898;49.864;8.550;2022-11-04T14:03:38;5.50;;;2.50;;
10088;SDS011;51898;49.864;8.550;2022-11-04T14:07:01;4.03;;;2.70;;
10088;SDS011;51898;49.864;8.550;2022-11-04T14:10:29;8.67;;;3.00;;
10088;SDS011;51898;49.864;8.550;2022-11-04T14:13:56;4.07;;;3.13;;
10088;SDS011;51898;49.864;8.550;2022-11-04T14:17:02;6.33;;;3.80;;
10088;SDS011;51898;49.864;8.550;2022-11-04T14:23:13;4.83;;;3.00;;
10088;SDS011;51898;49.864;8.550;2022-11-04T14:29:48;15.73;;;8.27;;
10088;SDS011;51898;49.864;8.550;2022-11-04T14:32:53;15.77;;;7.60;;
10088;SDS011;51898;49.864;8.550;2022-11-04T14:39:20;6.20;;;4.40;;
10088;SDS011;51898;49.864;8.550;2022-11-04T14:45:48;10.37;;;2.97;;
10088;SDS011;51898;49.864;8.550;2022-11-04T14:48:50;6.20;;;2.77;;
10088;SDS011;51898;49.864;8.550;2022-11-04T14:51:54;8.03;;;2.80;;
10088;SDS011;51898;49.864;8.550;2022-11-04T14:55:04;7.67;;;2.83;;
10088;SDS011;51898;49.864;8.550;2022-11-04T14:58:22;9.80;;;2.47;;
10088;SDS011;51898;49.864;8.550;2022-11-04T15:01:27;4.90;;;2.50;;
10088;SDS011;51898;49.864;8.550;2022-11-04T15:04:35;5.33;;;2.50;;
10088;SDS011;51898;49.864;8.550;2022-11-04T15:07:37;4.83;;;2.17;;
10088;SDS011;51898;49.864;8.550;2022-11-04T15:10:40;8.10;;;2.50;;
10088;SDS011;51898;49.864;8.550;2022-11-04T15:13:55;3.97;;;2.00;;
10088;SDS011;51898;49.864;8.550;2022-11-04T15:16:59;6.63;;;2.30;;
10088;SDS011;51898;49.864;8.550;2022-11-04T15:20:02;5.13;;;2.60;;
10088;SDS011;51898;49.864;8.550;2022-11-04T15:23:05;2.57;;;2.07;;
10088;SDS011;51898;49.864;8.550;2022-11-04T15:26:18;7.90;;;2.30;;
10088;SDS011;51898;49.864;8.550;2022-11-04T15:29:30;6.20;;;2.73;;
10088;SDS011;51898;49.864;8.550;2022-11-04T15:32:32;9.50;;;2.90;;
10088;SDS011;51898;49.864;8.550;2022-11-04T15:35:34;7.27;;;3.20;;
10088;SDS011;51898;49.864;8.550;2022-11-04T15:38:44;4.77;;;3.00;;
10088;SDS011;51898;49.864;8.550;2022-11-04T15:41:51;8.63;;;3.47;;
10088;SDS011;51898;49.864;8.550;2022-11-04T15:45:33;10.73;;;3.33;;
10088;SDS011;51898;49.864;8.550;2022-11-04T15:48:38;6.10;;;3.47;;
10088;SDS011;51898;49.864;8.550;2022-11-04T15:51:40;9.23;;;3.50;;
10088;SDS011;51898;49.864;8.550;2022-11-04T15:54:43;7.10;;;3.47;;
10088;SDS011;51898;49.864;8.550;2022-11-04T15:57:48;9.00;;;3.53;;
10088;SDS011;51898;49.864;8.550;2022-11-04T16:00:52;6.67;;;3.43;;
10088;SDS011;51898;49.864;8.550;2022-11-04T16:03:56;10.40;;;3.80;;
10088;SDS011;51898;49.864;8.550;2022-11-04T16:07:02;9.50;;;3.77;;
10088;SDS011;51898;49.864;8.550;2022-11-04T16:13:36;7.00;;;3.30;;
10088;SDS011;51898;49.864;8.550;2022-11-04T16:16:39;5.33;;;3.07;;
10088;SDS011;51898;49.864;8.550;2022-11-04T16:19:51;7.47;;;3.17;;
10088;SDS011;51898;49.864;8.550;2022-11-04T16:22:56;7.10;;;4.80;;
10088;SDS011;51898;49.864;8.550;2022-11-04T16:26:01;7.80;;;4.70;;
10088;SDS011;51898;49.864;8.550;2022-11-04T16:32:47;7.80;;;5.43;;
10088;SDS011;51898;49.864;8.550;2022-11-04T16:35:57;14.30;;;5.30;;
10088;SDS011;51898;49.864;8.550;2022-11-04T16:38:59;7.43;;;5.00;;
10088;SDS011;51898;49.864;8.550;2022-11-04T16:42:04;9.00;;;5.20;;
10088;SDS011;51898;49.864;8.550;2022-11-04T16:45:06;7.43;;;5.33;;
10088;SDS011;51898;49.864;8.550;2022-11-04T16:48:18;6.53;;;4.70;;
10088;SDS011;51898;49.864;8.550;2022-11-04T16:51:21;14.87;;;7.43;;
10088;SDS011;51898;49.864;8.550;2022-11-04T16:54:23;19.43;;;10.70;;
10088;SDS011;51898;49.864;8.550;2022-11-04T16:57:25;16.23;;;10.10;;
10088;SDS011;51898;49.864;8.550;2022-11-04T17:00:27;15.67;;;8.93;;
10088;SDS011;51898;49.864;8.550;2022-11-04T17:03:32;14.53;;;9.10;;
10088;SDS011;51898;49.864;8.550;2022-11-04T17:06:35;9.80;;;6.03;;
10088;SDS011;51898;49.864;8.550;2022-11-04T17:09:37;12.20;;;9.37;;
10088;SDS011;51898;49.864;8.550;2022-11-04T17:12:39;20.53;;;13.40;;
10088;SDS011;51898;49.864;8.550;2022-11-04T17:15:41;18.10;;;11.13;;
10088;SDS011;51898;49.864;8.550;2022-11-04T17:18:43;20.70;;;10.43;;
10088;SDS011;51898;49.864;8.550;2022-11-04T17:21:44;23.63;;;12.87;;
10088;SDS011;51898;49.864;8.550;2022-11-04T17:24:46;14.43;;;6.50;;
10088;SDS011;51898;49.864;8.550;2022-11-04T17:27:48;13.63;;;5.87;;
10088;SDS011;51898;49.864;8.550;2022-11-04T17:30:50;8.70;;;5.37;;
10088;SDS011;51898;49.864;8.550;2022-11-04T17:33:51;10.27;;;5.13;;
10088;SDS011;51898;49.864;8.550;2022-11-04T17:36:53;10.37;;;5.43;;
10088;SDS011;51898;49.864;8.550;2022-11-04T17:39:55;15.00;;;5.60;;
10088;SDS011;51898;49.864;8.550;2022-11-04T17:42:56;7.70;;;3.83;;
10088;SDS011;51898;49.864;8.550;2022-11-04T17:46:17;11.97;;;4.23;;
10088;SDS011;51898;49.864;8.550;2022-11-04T17:49:34;8.37;;;4.07;;
10088;SDS011;51898;49.864;8.550;2022-11-04T17:52:39;8.30;;;4.30;;
10088;SDS011;51898;49.864;8.550;2022-11-04T17:55:42;8.83;;;6.30;;
10088;SDS011;51898;49.864;8.550;2022-11-04T17:58:44;8.10;;;5.33;;
10088;SDS011;51898;49.864;8.550;2022-11-04T18:01:46;8.47;;;4.03;;
10088;SDS011;51898;49.864;8.550;2022-11-04T18:04:47;8.93;;;4.93;;
10088;SDS011;51898;49.864;8.550;2022-11-04T18:07:49;9.17;;;4.43;;
10088;SDS011;51898;49.864;8.550;2022-11-04T18:10:57;7.33;;;4.30;;
10088;SDS011;51898;49.864;8.550;2022-11-04T18:14:00;24.57;;;19.50;;
10088;SDS011;51898;49.864;8.550;2022-11-04T18:17:01;6.53;;;5.93;;
10088;SDS011;51898;49.864;8.550;2022-11-04T18:20:06;4.67;;;3.33;;
10088;SDS011;51898;49.864;8.550;2022-11-04T18:23:14;7.97;;;3.60;;
10088;SDS011;51898;49.864;8.550;2022-11-04T18:26:16;9.63;;;6.27;;
10088;SDS011;51898;49.864;8.550;2022-11-04T18:29:18;5.60;;;5.07;;
10088;SDS011;51898;49.864;8.550;2022-11-04T18:32:20;7.67;;;4.73;;
10088;SDS011;51898;49.864;8.550;2022-11-04T18:35:22;7.33;;;4.97;;
10088;SDS011;51898;49.864;8.550;2022-11-04T18:38:25;8.77;;;4.57;;
10088;SDS011;51898;49.864;8.550;2022-11-04T18:41:27;9.73;;;5.20;;
10088;SDS011;51898;49.864;8.550;2022-11-04T18:44:29;8.97;;;5.53;;
10088;SDS011;51898;49.864;8.550;2022-11-04T18:47:30;9.03;;;5.33;;
10088;SDS011;51898;49.864;8.550;2022-11-04T18:50:33;6.70;;;5.10;;
10088;SDS011;51898;49.864;8.550;2022-11-04T18:53:38;9.57;;;5.30;;
10088;SDS011;51898;49.864;8.550;2022-11-04T18:56:40;8.23;;;5.20;;
10088;SDS011;51898;49.864;8.550;2022-11-04T18:59:42;9.30;;;6.03;;
10088;SDS011;51898;49.864;8.550;2022-11-04T19:02:44;9.37;;;6.40;;
10088;SDS011;51898;49.864;8.550;2022-11-04T19:05:46;7.83;;;5.90;;
10088;SDS011;51898;49.864;8.550;2022-11-04T19:08:47;12.73;;;6.60;;
10088;SDS011;51898;49.864;8.550;2022-11-04T19:11:51;8.63;;;7.77;;
10088;SDS011;51898;49.864;8.550;2022-11-04T19:15:13;14.63;;;11.63;;
10088;SDS011;51898;49.864;8.550;2022-11-04T19:18:15;19.33;;;13.30;;
10088;SDS011;51898;49.864;8.550;2022-11-04T19:21:17;18.17;;;12.90;;
10088;SDS011;51898;49.864;8.550;2022-11-04T19:24:20;17.33;;;13.80;;
10088;SDS011;51898;49.864;8.550;2022-11-04T19:27:22;17.33;;;12.37;;
10088;SDS011;51898;49.864;8.550;2022-11-04T19:30:25;17.33;;;11.70;;
10088;SDS011;51898;49.864;8.550;2022-11-04T19:33:27;12.00;;;8.93;;
10088;SDS011;51898;49.864;8.550;2022-11-04T19:36:30;16.67;;;10.90;;
10088;SDS011;51898;49.864;8.550;2022-11-04T19:39:33;13.70;;;8.73;;
10088;SDS011;51898;49.864;8.550;2022-11-04T19:42:34;14.37;;;9.40;;
10088;SDS011;51898;49.864;8.550;2022-11-04T19:45:58;15.77;;;10.37;;
10088;SDS011;51898;49.864;8.550;2022-11-04T19:49:05;12.20;;;8.77;;
10088;SDS011;51898;49.864;8.550;2022-11-04T19:52:07;13.23;;;9.60;;
10088;SDS011;51898;49.864;8.550;2022-11-04T19:55:09;14.60;;;9.93;;
10088;SDS011;51898;49.864;8.550;2022-11-04T19:58:11;12.73;;;9.37;;
10088;SDS011;51898;49.864;8.550;2022-11-04T20:01:14;12.40;;;8.10;;
10088;SDS011;51898;49.864;8.550;2022-11-04T20:04:17;14.90;;;8.50;;
10088;SDS011;51898;49.864;8.550;2022-11-04T20:07:19;11.83;;;7.87;;
10088;SDS011;51898;49.864;8.550;2022-11-04T20:10:21;11.80;;;8.03;;
10088;SDS011;51898;49.864;8.550;2022-11-04T20:13:23;13.60;;;8.83;;
10088;SDS011;51898;49.864;8.550;2022-11-04T20:16:45;10.60;;;7.67;;
10088;SDS011;51898;49.864;8.550;2022-11-04T20:19:46;9.37;;;7.40;;
10088;SDS011;51898;49.864;8.550;2022-11-04T20:22:48;9.90;;;7.87;;
10088;SDS011;51898;49.864;8.550;2022-11-04T20:25:50;11.63;;;7.50;;
10088;SDS011;51898;49.864;8.550;2022-11-04T20:28:52;11.70;;;7.40;;
10088;SDS011;51898;49.864;8.550;2022-11-04T20:32:17;10.83;;;7.70;;
10088;SDS011;51898;49.864;8.550;2022-11-04T20:35:19;15.03;;;7.87;;
10088;SDS011;51898;49.864;8.550;2022-11-04T20:38:21;14.23;;;9.40;;